Time;durP1;ratioP1;P1;durP2;ratioP2;P2;SDS_P1;SDS_P2;PMS_P1;PMS_P2;Temp;Humidity;BMP_temperature;BMP_pressure;BME280_temperature;BME280_humidity;BME280_pressure;Samples;Min_cycle;Max_cycle;Signal;HPM_P1;HPM_P2
2021/01/11 00:01:27;;;;;;;5.72;4.55;;;8.80;80.30;;;;;;5086299;28;20032;-43
2021/01/11 00:03:53;;;;;;;5.85;4.43;;;8.80;80.30;;;;;;5086150;28;20017;-43
2021/01/11 00:06:19;;;;;;;5.75;4.43;;;8.80;80.40;;;;;;5084256;28;20036;-43
2021/01/11 00:08:45;;;;;;;5.50;4.50;;;8.80;79.50;;;;;;5085636;28;20690;-43
2021/01/11 00:11:22;;;;;;;6.20;4.93;;;8.80;79.40;;;;;;5089049;28;20032;-43
2021/01/11 00:13:49;;;;;;;5.13;4.60;;;8.80;79.60;;;;;;5085780;28;20098;-43
2021/01/11 00:16:15;;;;;;;6.10;5.00;;;8.80;79.60;;;;;;5087592;28;20032;-43
2021/01/11 00:18:42;;;;;;;7.28;4.28;;;8.80;79.70;;;;;;5084186;28;20131;-43
2021/01/11 00:21:08;;;;;;;5.13;4.60;;;8.80;79.90;;;;;;5085719;28;20050;-43
2021/01/11 00:23:34;;;;;;;4.75;4.15;;;8.80;80.00;;;;;;5091620;28;20030;-43
2021/01/11 00:26:00;;;;;;;5.03;4.53;;;8.80;79.70;;;;;;5104359;28;20063;-43
2021/01/11 00:28:26;;;;;;;5.18;4.68;;;8.80;79.80;;;;;;5105043;28;20028;-44
2021/01/11 00:30:52;;;;;;;4.85;4.35;;;8.80;79.70;;;;;;5105863;28;20115;-43
2021/01/11 00:33:19;;;;;;;4.85;4.38;;;8.70;79.50;;;;;;5105750;28;20032;-43
2021/01/11 00:35:45;;;;;;;4.43;3.97;;;8.70;79.50;;;;;;5105727;28;20873;-43
2021/01/11 00:38:11;;;;;;;4.65;4.05;;;8.70;79.40;;;;;;5105135;28;20028;-43
2021/01/11 00:40:37;;;;;;;5.53;4.57;;;8.70;79.30;;;;;;5099654;28;20100;-43
2021/01/11 00:43:03;;;;;;;4.82;4.40;;;8.70;79.50;;;;;;5070521;28;20025;-43
2021/01/11 00:45:29;;;;;;;4.78;4.28;;;8.70;79.40;;;;;;5065058;28;20033;-43
2021/01/11 00:47:55;;;;;;;4.22;3.83;;;8.70;79.40;;;;;;5065022;28;20028;-43
2021/01/11 00:50:22;;;;;;;4.50;3.80;;;8.70;79.40;;;;;;5065017;28;20033;-43
2021/01/11 00:52:48;;;;;;;3.88;3.50;;;8.70;79.40;;;;;;5064803;28;20112;-43
2021/01/11 00:55:14;;;;;;;4.15;3.65;;;8.70;80.20;;;;;;5064873;28;20473;-44
2021/01/11 00:57:42;;;;;;;3.17;2.88;;;8.70;79.50;;;;;;5064601;28;20071;-43
2021/01/11 01:00:10;;;;;;;5.10;3.67;;;8.70;79.30;;;;;;5075543;28;20048;-43
2021/01/11 01:02:36;;;;;;;3.53;3.22;;;8.70;79.40;;;;;;5084978;28;20096;-43
2021/01/11 01:05:04;;;;;;;4.28;3.85;;;8.60;79.40;;;;;;5085086;28;20035;-43
2021/01/11 01:07:30;;;;;;;4.07;3.55;;;8.60;79.30;;;;;;5084579;28;20593;-44
2021/01/11 01:09:56;;;;;;;4.25;3.58;;;8.60;79.40;;;;;;5084711;28;20013;-43
2021/01/11 01:12:23;;;;;;;5.43;3.40;;;8.60;79.40;;;;;;5085187;28;20142;-43
2021/01/11 01:14:49;;;;;;;3.88;3.05;;;8.60;79.30;;;;;;5084628;28;20029;-43
2021/01/11 01:17:15;;;;;;;4.40;3.75;;;8.50;79.30;;;;;;5084549;28;20153;-43
2021/01/11 01:19:41;;;;;;;4.15;3.30;;;8.60;79.40;;;;;;5084362;28;20050;-44
2021/01/11 01:22:07;;;;;;;2.80;2.58;;;8.60;79.50;;;;;;5084391;28;20028;-43
2021/01/11 01:24:33;;;;;;;4.70;4.18;;;8.50;79.30;;;;;;5084462;28;20522;-43
2021/01/11 01:26:59;;;;;;;4.65;3.40;;;8.50;79.30;;;;;;5084552;28;20033;-43
2021/01/11 01:29:26;;;;;;;3.95;3.38;;;8.50;79.40;;;;;;5083998;28;20054;-43
2021/01/11 01:31:52;;;;;;;5.03;4.53;;;8.50;79.40;;;;;;5084409;28;20031;-43
2021/01/11 01:34:18;;;;;;;4.75;4.20;;;8.50;79.40;;;;;;5084531;28;20068;-43
2021/01/11 01:36:44;;;;;;;4.22;3.78;;;8.50;79.50;;;;;;5084196;28;20021;-43
2021/01/11 01:39:10;;;;;;;4.80;3.95;;;8.50;79.60;;;;;;5083565;28;20047;-43
2021/01/11 01:41:36;;;;;;;4.78;4.22;;;8.50;79.50;;;;;;5084209;28;20044;-43
2021/01/11 01:44:03;;;;;;;5.22;4.72;;;8.40;79.50;;;;;;5083334;28;20023;-43
2021/01/11 01:46:30;;;;;;;4.70;4.20;;;8.50;79.60;;;;;;5083905;28;20066;-43
2021/01/11 01:48:56;;;;;;;;;;;8.50;79.50;;;;;;5082933;28;20029;-43
2021/01/11 01:51:22;;;;;;;4.70;4.20;;;8.40;79.60;;;;;;5116451;28;19910;-43
2021/01/11 01:53:48;;;;;;;5.15;4.53;;;8.40;79.70;;;;;;5083811;28;20040;-43
2021/01/11 01:56:15;;;;;;;4.82;4.32;;;8.40;79.60;;;;;;5082330;28;20044;-43
2021/01/11 01:58:42;;;;;;;3.47;3.17;;;8.40;79.60;;;;;;5082202;28;20024;-43
2021/01/11 02:01:08;;;;;;;4.80;4.30;;;8.40;79.60;;;;;;5082419;28;20044;-43
2021/01/11 02:03:34;;;;;;;5.43;4.85;;;8.40;79.60;;;;;;5083577;28;20704;-43
2021/01/11 02:06:00;;;;;;;5.72;4.60;;;8.40;79.60;;;;;;5083644;28;20037;-43
2021/01/11 02:08:33;;;;;;;4.53;4.13;;;8.40;79.70;;;;;;5083198;28;20084;-43
2021/01/11 02:11:28;;;;;;;4.45;4.05;;;8.40;79.70;;;;;;5087389;28;20020;-43
2021/01/11 02:14:12;;;;;;;4.82;4.35;;;8.40;79.70;;;;;;5083309;28;20032;-43
2021/01/11 02:16:38;;;;;;;5.05;4.55;;;8.30;79.60;;;;;;5085976;28;20078;-43
2021/01/11 02:19:16;;;;;;;4.93;4.43;;;8.40;79.80;;;;;;5083152;28;20032;-43
2021/01/11 02:21:54;;;;;;;5.28;4.30;;;8.30;79.70;;;;;;5083585;28;20107;-43
2021/01/11 02:25:02;;;;;;;5.05;4.10;;;8.30;79.80;;;;;;5083182;28;20033;-43
2021/01/11 02:27:46;;;;;;;4.90;4.05;;;8.30;79.80;;;;;;5040624;28;20089;-44
2021/01/11 02:30:16;;;;;;;5.15;4.55;;;8.30;79.80;;;;;;5024090;28;20051;-43
2021/01/11 02:32:48;;;;;;;5.22;4.43;;;8.30;79.90;;;;;;5024172;28;20112;-43
2021/01/11 02:35:16;;;;;;;5.63;4.63;;;8.30;79.90;;;;;;5024526;28;20029;-43
2021/01/11 02:37:42;;;;;;;5.28;4.57;;;8.30;79.90;;;;;;5040233;28;20065;-43
2021/01/11 02:40:09;;;;;;;5.05;4.15;;;8.30;79.90;;;;;;5040142;28;20441;-44
2021/01/11 02:42:35;;;;;;;;;;;8.30;79.90;;;;;;5040820;28;20029;-43
2021/01/11 02:45:02;;;;;;;4.55;3.97;;;8.30;79.90;;;;;;5040395;28;19975;-43
2021/01/11 02:47:49;;;;;;;6.68;4.55;;;8.30;79.90;;;;;;5040414;28;20049;-43
2021/01/11 02:50:19;;;;;;;4.78;4.32;;;8.20;79.90;;;;;;5026085;28;20034;-43
2021/01/11 02:53:10;;;;;;;4.63;4.07;;;8.20;79.90;;;;;;5039865;28;20029;-43
2021/01/11 02:55:45;;;;;;;5.35;4.85;;;8.20;80.00;;;;;;5023496;28;20694;-43
2021/01/11 02:58:26;;;;;;;5.53;4.88;;;8.20;80.00;;;;;;5044570;28;20047;-43
2021/01/11 03:00:52;;;;;;;5.65;4.63;;;8.20;80.00;;;;;;5081189;28;20029;-43
2021/01/11 03:03:18;;;;;;;5.13;4.47;;;8.20;80.00;;;;;;5081651;28;20031;-43
2021/01/11 03:05:45;;;;;;;5.32;4.38;;;8.20;80.00;;;;;;5081756;28;20063;-43
2021/01/11 03:08:11;;;;;;;5.50;4.72;;;8.20;80.00;;;;;;5064637;28;20101;-43
2021/01/11 03:10:37;;;;;;;5.85;5.00;;;8.20;80.10;;;;;;5083166;28;20320;-43
2021/01/11 03:13:03;;;;;;;5.72;4.65;;;8.20;80.00;;;;;;5082846;28;20028;-43
2021/01/11 03:15:29;;;;;;;6.28;5.10;;;8.20;80.00;;;;;;5082580;28;20025;-43
2021/01/11 03:17:55;;;;;;;5.22;4.72;;;8.20;80.10;;;;;;5083154;28;20068;-43
2021/01/11 03:20:21;;;;;;;5.15;4.63;;;8.20;80.10;;;;;;5082621;28;20032;-43
2021/01/11 03:22:48;;;;;;;5.28;4.78;;;8.10;80.00;;;;;;5082604;28;20067;-43
2021/01/11 03:25:14;;;;;;;5.03;4.53;;;8.10;80.10;;;;;;5082724;28;20064;-43
2021/01/11 03:27:40;;;;;;;5.28;4.45;;;8.10;80.10;;;;;;5082789;28;20039;-43
2021/01/11 03:30:07;;;;;;;5.30;4.80;;;8.10;80.10;;;;;;5082455;28;20031;-43
2021/01/11 03:32:33;;;;;;;5.10;4.60;;;8.10;80.20;;;;;;5082720;28;20032;-43
2021/01/11 03:34:59;;;;;;;4.07;3.67;;;8.10;80.10;;;;;;5082522;28;20028;-43
2021/01/11 03:37:25;;;;;;;5.47;4.93;;;8.10;80.20;;;;;;5082600;28;20051;-43
2021/01/11 03:39:51;;;;;;;5.38;4.85;;;8.10;80.20;;;;;;5082408;28;20029;-43
2021/01/11 03:42:18;;;;;;;6.63;4.95;;;8.10;80.20;;;;;;5074132;28;20103;-43
2021/01/11 03:44:44;;;;;;;5.00;4.50;;;8.10;80.20;;;;;;5062437;28;20078;-43
2021/01/11 03:47:10;;;;;;;5.43;4.93;;;8.10;80.30;;;;;;5060863;28;20032;-43
2021/01/11 03:49:36;;;;;;;5.13;4.63;;;8.10;80.30;;;;;;5062174;28;20025;-44
2021/01/11 03:52:03;;;;;;;5.95;5.03;;;8.10;80.30;;;;;;5080496;28;20253;-43
2021/01/11 03:54:30;;;;;;;5.82;4.88;;;8.10;80.20;;;;;;5080920;28;20017;-43
2021/01/11 03:56:56;;;;;;;6.20;3.53;;;8.10;80.30;;;;;;5082210;28;20056;-43
2021/01/11 03:59:22;;;;;;;5.15;4.65;;;8.00;80.30;;;;;;5082191;28;20289;-43
2021/01/11 04:01:48;;;;;;;5.70;4.73;;;8.00;80.30;;;;;;5082146;28;20050;-43
2021/01/11 04:04:15;;;;;;;5.38;4.88;;;8.00;80.30;;;;;;5084779;28;20051;-43
2021/01/11 04:06:41;;;;;;;6.18;4.88;;;8.00;80.30;;;;;;5085889;28;20043;-43
2021/01/11 04:09:07;;;;;;;5.07;4.57;;;8.00;80.30;;;;;;5086328;28;20106;-43
2021/01/11 04:11:33;;;;;;;5.47;4.65;;;8.00;80.30;;;;;;5086279;28;20033;-43
2021/01/11 04:13:59;;;;;;;5.85;5.00;;;8.00;80.30;;;;;;5085646;28;20021;-43
2021/01/11 04:16:25;;;;;;;5.47;4.90;;;8.00;80.40;;;;;;5086052;28;20079;-43
2021/01/11 04:18:52;;;;;;;7.18;4.57;;;8.00;80.40;;;;;;5097184;28;20088;-43
2021/01/11 04:21:18;;;;;;;5.33;4.70;;;7.90;80.30;;;;;;5091792;28;20770;-43
2021/01/11 04:23:44;;;;;;;5.07;4.57;;;8.00;80.40;;;;;;5085689;28;20060;-43
2021/01/11 04:26:10;;;;;;;5.15;4.50;;;8.00;81.10;;;;;;5085613;28;20055;-43
2021/01/11 04:28:37;;;;;;;6.50;4.80;;;7.90;80.40;;;;;;5085520;28;20542;-44
2021/01/11 04:31:03;;;;;;;6.10;5.15;;;7.90;80.40;;;;;;5084172;28;20040;-43
2021/01/11 04:33:29;;;;;;;5.00;4.45;;;7.90;80.40;;;;;;5085450;28;20095;-43
2021/01/11 04:35:56;;;;;;;5.18;4.68;;;7.90;80.40;;;;;;5084215;28;20032;-43
2021/01/11 04:38:22;;;;;;;5.93;4.90;;;7.90;80.50;;;;;;5085238;28;20055;-43
2021/01/11 04:40:49;;;;;;;5.40;4.80;;;7.90;80.40;;;;;;5085718;28;20037;-43
2021/01/11 04:43:15;;;;;;;5.78;4.85;;;7.90;80.50;;;;;;5085351;28;20027;-43
2021/01/11 04:45:42;;;;;;;6.13;5.22;;;7.90;80.50;;;;;;5085236;28;20040;-43
2021/01/11 04:48:10;;;;;;;6.15;5.55;;;7.90;80.50;;;;;;5085181;28;20029;-43
2021/01/11 04:50:36;;;;;;;7.07;5.80;;;7.90;80.50;;;;;;5083511;28;20044;-43
2021/01/11 04:53:08;;;;;;;5.53;4.30;;;7.90;80.60;;;;;;5091455;28;20032;-43
2021/01/11 04:55:36;;;;;;;5.75;4.95;;;7.90;80.50;;;;;;5083685;28;20045;-43
2021/01/11 04:58:09;;;;;;;5.88;4.75;;;7.90;80.60;;;;;;5085105;28;20028;-43
2021/01/11 05:00:36;;;;;;;5.50;4.57;;;7.90;80.60;;;;;;5084855;28;20029;-43
2021/01/11 05:03:04;;;;;;;6.05;5.00;;;7.90;80.60;;;;;;5084974;28;20088;-43
2021/01/11 05:05:32;;;;;;;5.35;4.75;;;7.80;80.50;;;;;;5084873;28;20029;-44
2021/01/11 05:07:58;;;;;;;6.22;5.25;;;7.80;80.50;;;;;;5084742;28;20508;-43
2021/01/11 05:10:29;;;;;;;6.20;5.30;;;7.80;80.50;;;;;;5085288;28;20029;-43
2021/01/11 05:12:57;;;;;;;5.05;4.55;;;7.80;80.50;;;;;;5084561;28;20043;-43
2021/01/11 05:15:24;;;;;;;5.70;4.57;;;7.80;80.60;;;;;;5084599;28;20021;-44
2021/01/11 05:17:50;;;;;;;6.60;5.03;;;7.80;80.60;;;;;;5084653;28;20066;-43
2021/01/11 05:20:20;;;;;;;6.47;5.28;;;7.80;80.60;;;;;;5084712;28;20048;-43
2021/01/11 05:22:49;;;;;;;5.85;5.32;;;7.80;80.60;;;;;;5084110;28;20048;-43
2021/01/11 05:25:17;;;;;;;6.60;5.32;;;7.80;80.70;;;;;;5084625;28;20077;-43
2021/01/11 05:27:44;;;;;;;6.10;5.13;;;7.80;80.60;;;;;;5084467;28;20035;-43
2021/01/11 05:30:31;;;;;;;4.10;3.70;;;7.80;80.70;;;;;;5084316;28;20693;-43
2021/01/11 05:32:57;;;;;;;5.53;4.95;;;7.80;80.70;;;;;;5084181;28;20031;-43
2021/01/11 05:35:24;;;;;;;5.85;4.95;;;7.80;80.70;;;;;;5084308;28;20031;-43
2021/01/11 05:37:54;;;;;;;6.45;5.13;;;7.80;80.70;;;;;;5084292;28;20043;-43
2021/01/11 05:40:24;;;;;;;6.15;5.22;;;7.80;80.70;;;;;;5084660;28;20036;-44
2021/01/11 05:43:00;;;;;;;6.70;5.03;;;7.70;80.70;;;;;;5083962;28;20028;-43
2021/01/11 05:45:30;;;;;;;5.30;4.80;;;7.70;80.70;;;;;;5084073;28;20710;-43
2021/01/11 05:48:07;;;;;;;6.00;5.05;;;7.80;80.80;;;;;;5099813;28;20131;-43
2021/01/11 05:50:38;;;;;;;7.05;5.20;;;7.80;80.90;;;;;;5084027;28;20027;-43
2021/01/11 05:53:05;;;;;;;5.85;5.15;;;7.70;80.70;;;;;;5083640;28;20040;-43
2021/01/11 05:55:32;;;;;;;6.00;4.57;;;7.70;80.70;;;;;;5082292;28;20040;-43
2021/01/11 05:58:03;;;;;;;6.88;5.63;;;7.70;80.70;;;;;;5082713;28;20401;-43
2021/01/11 06:00:36;;;;;;;7.55;5.70;;;7.70;80.70;;;;;;5083643;28;20096;-43
2021/01/11 06:03:04;;;;;;;6.45;4.80;;;7.70;80.80;;;;;;5083554;28;20032;-43
2021/01/11 06:05:31;;;;;;;6.20;5.15;;;7.70;80.80;;;;;;5083741;28;20115;-43
2021/01/11 06:07:58;;;;;;;6.55;5.40;;;7.70;80.70;;;;;;5081979;28;20040;-43
2021/01/11 06:10:24;;;;;;;5.95;5.15;;;7.70;80.80;;;;;;5088255;28;20029;-43
2021/01/11 06:12:51;;;;;;;6.90;5.28;;;7.70;80.80;;;;;;5103599;28;20083;-43
2021/01/11 06:15:18;;;;;;;5.20;4.63;;;7.70;80.80;;;;;;5103650;28;20084;-43
2021/01/11 06:17:45;;;;;;;5.47;4.90;;;7.70;80.90;;;;;;5103814;28;20016;-43
2021/01/11 06:20:17;;;;;;;5.82;4.93;;;7.70;80.90;;;;;;5093179;28;20048;-43
2021/01/11 06:22:46;;;;;;;6.07;5.45;;;7.70;80.90;;;;;;5082034;28;20032;-43
2021/01/11 06:25:19;;;;;;;6.18;5.50;;;7.70;80.90;;;;;;5083406;28;20032;-43
2021/01/11 06:27:58;;;;;;;6.47;5.53;;;7.70;80.90;;;;;;5085495;28;20037;-43
2021/01/11 06:30:41;;;;;;;6.20;5.53;;;7.70;80.90;;;;;;5083151;28;20029;-43
2021/01/11 06:33:26;;;;;;;5.57;4.93;;;7.70;80.90;;;;;;5082971;28;20024;-43
2021/01/11 06:35:53;;;;;;;5.40;4.90;;;7.70;81.00;;;;;;5083414;28;20122;-43
2021/01/11 06:38:20;;;;;;;;;;;7.70;81.00;;;;;;5083695;28;20035;-43
2021/01/11 06:40:54;;;;;;;5.88;4.80;;;7.70;80.90;;;;;;5083766;28;19905;-43
2021/01/11 06:43:22;;;;;;;7.43;5.40;;;7.70;81.00;;;;;;5081496;28;20029;-43
2021/01/11 06:45:49;;;;;;;5.25;4.70;;;7.60;80.90;;;;;;5081597;28;20041;-43
2021/01/11 06:48:18;;;;;;;7.10;5.43;;;7.60;81.00;;;;;;5083069;28;20029;-43
2021/01/11 06:50:46;;;;;;;6.32;5.60;;;7.60;81.00;;;;;;5082940;28;20025;-43
2021/01/11 06:53:12;;;;;;;6.15;5.53;;;7.60;81.00;;;;;;5081334;28;20044;-43
2021/01/11 06:55:38;;;;;;;6.82;5.63;;;7.60;81.00;;;;;;5082973;28;20044;-43
2021/01/11 06:58:04;;;;;;;6.63;5.43;;;7.60;81.00;;;;;;5082987;28;20034;-43
2021/01/11 07:00:38;;;;;;;6.90;5.40;;;7.60;81.00;;;;;;5082755;28;20033;-43
2021/01/11 07:03:07;;;;;;;5.18;4.68;;;7.60;81.00;;;;;;5082749;28;20032;-43
2021/01/11 07:05:33;;;;;;;5.60;4.70;;;7.60;81.00;;;;;;5082883;28;20024;-43
2021/01/11 07:08:03;;;;;;;7.00;5.63;;;7.60;81.00;;;;;;5083183;28;20045;-43
2021/01/11 07:10:29;;;;;;;6.22;5.55;;;7.60;81.00;;;;;;5083375;28;20032;-43
2021/01/11 07:13:16;;;;;;;6.53;5.43;;;7.60;81.10;;;;;;5082816;28;20052;-43
2021/01/11 07:15:52;;;;;;;6.13;5.20;;;7.60;81.10;;;;;;5082743;28;20043;-43
2021/01/11 07:18:56;;;;;;;6.07;5.00;;;7.60;81.10;;;;;;5082793;28;20519;-43
2021/01/11 07:21:24;;;;;;;5.72;5.07;;;7.60;81.10;;;;;;5040031;28;20025;-43
2021/01/11 07:23:50;;;;;;;7.32;5.65;;;7.60;81.20;;;;;;5039570;28;20067;-43
2021/01/11 07:26:21;;;;;;;7.40;5.68;;;7.60;81.10;;;;;;5040149;28;20045;-43
2021/01/11 07:28:55;;;;;;;7.25;4.95;;;7.60;81.10;;;;;;5039845;28;20029;-43
2021/01/11 07:31:22;;;;;;;5.75;5.13;;;7.60;81.10;;;;;;5039992;28;20056;-43
2021/01/11 07:33:52;;;;;;;;;;;7.60;81.10;;;;;;5040508;28;20584;-43
2021/01/11 07:36:20;;;;;;;6.25;4.82;;;7.60;81.20;;;;;;5040045;28;20017;-43
2021/01/11 07:38:46;;;;;;;5.45;4.65;;;7.60;81.20;;;;;;5041386;28;20425;-43
2021/01/11 07:41:32;;;;;;;5.97;5.37;;;7.60;81.20;;;;;;5027234;28;20022;-43
2021/01/11 07:44:24;;;;;;;6.20;5.32;;;7.60;81.20;;;;;;5023799;28;20073;-43
2021/01/11 07:47:06;;;;;;;6.10;5.50;;;7.60;81.20;;;;;;5023737;28;20033;-43
2021/01/11 07:49:48;;;;;;;6.60;5.53;;;7.60;81.20;;;;;;5023662;28;20036;-43
2021/01/11 07:52:19;;;;;;;7.53;5.80;;;7.50;81.10;;;;;;5038530;28;20034;-43
2021/01/11 07:54:46;;;;;;;5.85;4.90;;;7.60;81.30;;;;;;5049134;28;20033;-43
2021/01/11 07:57:13;;;;;;;7.25;5.65;;;7.50;81.20;;;;;;5066305;28;20041;-43
2021/01/11 07:59:39;;;;;;;;;;;7.50;81.20;;;;;;5064737;28;20496;-43
2021/01/11 08:02:10;;;;;;;7.10;5.50;;;7.50;81.20;;;;;;5067205;28;19931;-43
2021/01/11 08:04:39;;;;;;;7.82;5.35;;;7.50;81.20;;;;;;5087408;28;20035;-43
2021/01/11 08:07:10;;;;;;;7.38;5.55;;;7.50;81.20;;;;;;5085900;28;20036;-43
2021/01/11 08:09:37;;;;;;;7.35;6.00;;;7.50;81.20;;;;;;5085939;28;20193;-43
2021/01/11 08:12:07;;;;;;;5.68;5.10;;;7.50;81.30;;;;;;5096290;28;20154;-43
2021/01/11 08:14:33;;;;;;;6.78;5.50;;;7.50;81.30;;;;;;5085612;28;20024;-43
2021/01/11 08:17:00;;;;;;;5.85;4.90;;;7.50;81.30;;;;;;5086024;28;20024;-43
2021/01/11 08:19:26;;;;;;;6.82;5.45;;;7.50;81.30;;;;;;5084467;28;20036;-43
2021/01/11 08:21:59;;;;;;;5.97;5.18;;;7.50;81.30;;;;;;5088405;28;20024;-43
2021/01/11 08:24:25;;;;;;;6.63;5.20;;;7.50;81.30;;;;;;5088016;28;20042;-43
2021/01/11 08:26:59;;;;;;;7.85;5.60;;;7.50;81.30;;;;;;5085590;28;20041;-43
2021/01/11 08:29:26;;;;;;;7.53;5.72;;;7.50;81.30;;;;;;5084080;28;20088;-43
2021/01/11 08:31:53;;;;;;;6.82;5.28;;;7.50;81.30;;;;;;5067562;28;20048;-43
2021/01/11 08:34:19;;;;;;;6.00;5.15;;;7.50;81.30;;;;;;5083996;28;20029;-43
2021/01/11 08:36:45;;;;;;;6.82;5.82;;;7.50;81.30;;;;;;5085552;28;20033;-43
2021/01/11 08:39:14;;;;;;;6.97;5.97;;;7.50;81.30;;;;;;5085278;28;20028;-43
2021/01/11 08:41:48;;;;;;;5.95;5.15;;;7.50;81.30;;;;;;5085961;28;20036;-43
2021/01/11 08:44:31;;;;;;;6.60;5.70;;;7.50;81.40;;;;;;5085121;28;20527;-43
2021/01/11 08:47:05;;;;;;;7.10;5.95;;;7.50;81.40;;;;;;5085097;28;20033;-44
2021/01/11 08:49:32;;;;;;;7.20;5.40;;;7.50;81.40;;;;;;5083560;28;20021;-43
2021/01/11 08:52:11;;;;;;;5.85;5.18;;;7.50;81.40;;;;;;5085082;28;20028;-43
2021/01/11 08:54:38;;;;;;;6.35;5.28;;;7.50;81.40;;;;;;5084923;28;20112;-44
2021/01/11 08:57:14;;;;;;;7.30;5.70;;;7.50;81.40;;;;;;5085156;28;20055;-43
2021/01/11 08:59:52;;;;;;;6.65;5.45;;;7.50;81.40;;;;;;5085083;28;20031;-43
2021/01/11 09:02:25;;;;;;;7.20;5.70;;;7.50;81.40;;;;;;5084940;28;20028;-43
2021/01/11 09:04:52;;;;;;;6.18;5.40;;;7.50;81.40;;;;;;5084835;28;20028;-43
2021/01/11 09:07:31;;;;;;;7.72;5.35;;;7.40;81.40;;;;;;5084762;28;20062;-43
2021/01/11 09:09:58;;;;;;;6.00;5.40;;;7.40;81.40;;;;;;5083373;28;20057;-43
2021/01/11 09:12:29;;;;;;;6.47;5.50;;;7.40;81.40;;;;;;5083861;28;20020;-43
2021/01/11 09:14:56;;;;;;;6.80;5.72;;;7.40;81.40;;;;;;5084313;28;20051;-43
2021/01/11 09:17:29;;;;;;;7.85;5.38;;;7.40;81.40;;;;;;5084723;28;20027;-43
2021/01/11 09:19:59;;;;;;;9.52;5.57;;;7.40;81.40;;;;;;5084712;28;20027;-43
2021/01/11 09:22:34;;;;;;;10.48;6.15;;;7.40;81.40;;;;;;5084731;28;20035;-43
2021/01/11 09:25:01;;;;;;;8.63;5.43;;;7.40;81.40;;;;;;5082733;28;20067;-43
2021/01/11 09:27:27;;;;;;;8.65;5.57;;;7.40;81.50;;;;;;5084292;28;20044;-43
2021/01/11 09:29:54;;;;;;;11.27;5.68;;;7.40;81.50;;;;;;5084270;28;20032;-43
2021/01/11 09:32:20;;;;;;;7.95;5.65;;;7.40;81.50;;;;;;5084443;28;20079;-43
2021/01/11 09:34:46;;;;;;;7.32;3.67;;;7.40;81.50;;;;;;5084461;28;20043;-43
2021/01/11 09:37:13;;;;;;;7.05;5.05;;;7.40;81.50;;;;;;5084107;28;20061;-43
2021/01/11 09:39:39;;;;;;;10.32;6.43;;;7.40;81.50;;;;;;5084065;28;20766;-43
2021/01/11 09:42:06;;;;;;;7.45;6.22;;;7.40;81.50;;;;;;5084713;28;20048;-43
2021/01/11 09:44:32;;;;;;;7.20;5.53;;;7.40;81.50;;;;;;5083792;28;20024;-44
2021/01/11 09:46:59;;;;;;;7.50;4.95;;;7.40;81.50;;;;;;5083960;28;20394;-44
2021/01/11 09:49:25;;;;;;;7.20;5.80;;;7.40;81.50;;;;;;5084142;28;20035;-43
2021/01/11 09:51:52;;;;;;;7.77;5.47;;;7.40;81.50;;;;;;5082430;28;20093;-43
2021/01/11 09:54:18;;;;;;;8.38;5.10;;;7.40;81.60;;;;;;5084045;28;20044;-43
2021/01/11 09:56:44;;;;;;;6.45;5.20;;;7.40;81.60;;;;;;5082046;28;20201;-43
2021/01/11 09:59:10;;;;;;;7.47;6.10;;;7.40;81.50;;;;;;5083783;28;20032;-43
2021/01/11 10:01:40;;;;;;;6.32;5.28;;;7.40;81.50;;;;;;5086797;28;20016;-43
2021/01/11 10:04:07;;;;;;;7.65;5.63;;;7.40;81.50;;;;;;5102706;28;20020;-44
2021/01/11 10:06:46;;;;;;;7.37;5.90;;;7.40;81.50;;;;;;5104081;28;20046;-43
2021/01/11 10:09:14;;;;;;;6.88;5.70;;;7.40;81.60;;;;;;5103709;28;20026;-43
2021/01/11 10:11:40;;;;;;;7.45;5.60;;;7.40;81.60;;;;;;5099835;28;20029;-43
2021/01/11 10:14:07;;;;;;;6.32;5.70;;;7.40;81.60;;;;;;5083528;28;20029;-43
2021/01/11 10:16:33;;;;;;;7.78;6.03;;;7.40;81.60;;;;;;5084413;28;20020;-43
2021/01/11 10:18:59;;;;;;;6.38;5.57;;;7.40;81.70;;;;;;5083469;28;20039;-43
2021/01/11 10:21:26;;;;;;;7.57;5.43;;;7.40;81.60;;;;;;5083464;28;20092;-43
2021/01/11 10:23:53;;;;;;;6.93;5.72;;;7.40;81.60;;;;;;5083502;28;20032;-43
2021/01/11 10:26:22;;;;;;;6.55;5.70;;;7.40;81.70;;;;;;5085690;28;20447;-43
2021/01/11 10:28:49;;;;;;;7.47;5.22;;;7.40;81.70;;;;;;5081671;28;20766;-43
2021/01/11 10:31:16;;;;;;;7.47;5.95;;;7.40;81.60;;;;;;5082091;28;20062;-43
2021/01/11 10:33:45;;;;;;;7.07;5.85;;;7.40;81.70;;;;;;5083388;28;20028;-43
2021/01/11 10:36:12;;;;;;;6.95;5.25;;;7.40;81.70;;;;;;5083366;28;20031;-44
2021/01/11 10:38:39;;;;;;;6.55;5.70;;;7.40;81.70;;;;;;5082974;28;20021;-43
2021/01/11 10:41:05;;;;;;;6.85;5.53;;;7.40;81.70;;;;;;5083623;28;20092;-43
2021/01/11 10:43:33;;;;;;;7.25;5.85;;;7.40;81.70;;;;;;5081991;28;20033;-43
2021/01/11 10:46:00;;;;;;;6.55;5.55;;;7.40;81.70;;;;;;5083092;28;20032;-43
2021/01/11 10:48:27;;;;;;;7.35;5.85;;;7.40;81.70;;;;;;5083019;28;20028;-43
2021/01/11 10:50:54;;;;;;;6.93;5.75;;;7.40;81.70;;;;;;5082926;28;20088;-43
2021/01/11 10:53:20;;;;;;;5.10;4.28;;;7.30;81.70;;;;;;5082822;28;20564;-43
2021/01/11 10:55:46;;;;;;;7.97;5.85;;;7.40;81.70;;;;;;5082796;28;20055;-43
2021/01/11 10:58:12;;;;;;;5.80;5.20;;;7.30;81.70;;;;;;5082970;28;20033;-43
2021/01/11 11:00:38;;;;;;;6.30;5.50;;;7.30;81.80;;;;;;5082814;28;20028;-43
2021/01/11 11:03:08;;;;;;;8.13;5.80;;;7.30;81.70;;;;;;5083106;28;20071;-43
2021/01/11 11:05:34;;;;;;;7.55;5.85;;;7.30;81.70;;;;;;5082973;28;20054;-43
2021/01/11 11:08:00;;;;;;;5.80;5.13;;;7.30;81.80;;;;;;5082768;28;20028;-43
2021/01/11 11:10:26;;;;;;;6.40;5.65;;;7.30;81.80;;;;;;5083329;28;20024;-43
2021/01/11 11:12:52;;;;;;;6.45;5.57;;;7.30;81.80;;;;;;5084967;28;20039;-43
2021/01/11 11:15:19;;;;;;;7.38;5.93;;;7.30;81.80;;;;;;5086983;28;20063;-43
2021/01/11 11:17:45;;;;;;;7.25;6.00;;;7.30;81.90;;;;;;5086866;28;20484;-43
2021/01/11 11:20:12;;;;;;;7.57;5.78;;;7.30;81.80;;;;;;5087017;28;20032;-43
2021/01/11 11:22:39;;;;;;;6.32;5.47;;;7.40;81.90;;;;;;5087066;28;20020;-43
2021/01/11 11:25:06;;;;;;;6.63;5.55;;;7.30;81.90;;;;;;5086786;28;20111;-43
2021/01/11 11:27:33;;;;;;;7.28;6.25;;;7.30;81.90;;;;;;5085335;28;20123;-43
2021/01/11 11:30:00;;;;;;;6.38;5.53;;;7.30;81.80;;;;;;5086579;28;20028;-43
2021/01/11 11:32:26;;;;;;;7.10;5.60;;;7.30;81.90;;;;;;5086748;28;20084;-43
2021/01/11 11:34:52;;;;;;;7.85;6.20;;;7.30;81.90;;;;;;5086643;28;20044;-43
2021/01/11 11:37:20;;;;;;;5.90;5.30;;;7.30;81.90;;;;;;5086649;28;20032;-43
2021/01/11 11:39:46;;;;;;;6.82;5.70;;;7.30;81.90;;;;;;5086231;28;20043;-43
2021/01/11 11:42:12;;;;;;;7.15;5.65;;;7.30;81.90;;;;;;5087207;28;20036;-43
2021/01/11 11:44:39;;;;;;;6.55;5.32;;;7.30;81.90;;;;;;5086297;28;20032;-43
2021/01/11 11:47:05;;;;;;;6.57;5.88;;;7.30;81.90;;;;;;5086461;28;20109;-43
2021/01/11 11:49:31;;;;;;;8.60;5.68;;;7.30;81.90;;;;;;5086173;28;20052;-43
2021/01/11 11:51:57;;;;;;;6.47;5.78;;;7.30;81.90;;;;;;5086124;28;20025;-43
2021/01/11 11:54:23;;;;;;;6.70;5.47;;;7.30;81.90;;;;;;5086090;28;20021;-43
2021/01/11 11:56:49;;;;;;;8.38;5.80;;;7.30;81.90;;;;;;5088262;28;20048;-43
2021/01/11 11:59:15;;;;;;;9.35;6.18;;;7.30;82.00;;;;;;5085917;28;20422;-43
2021/01/11 12:01:42;;;;;;;6.82;5.50;;;7.30;81.90;;;;;;5086173;28;20560;-43
2021/01/11 12:04:08;;;;;;;6.78;5.68;;;7.30;82.00;;;;;;5085820;28;20033;-44
2021/01/11 12:06:46;;;;;;;6.15;5.55;;;7.30;82.00;;;;;;5086086;28;20096;-43
2021/01/11 12:09:12;;;;;;;;;;;7.30;82.00;;;;;;5104189;28;20071;-43
2021/01/11 12:11:51;;;;;;;7.68;5.25;;;7.30;81.90;;;;;;5105732;28;19913;-43
2021/01/11 12:14:18;;;;;;;7.43;5.93;;;7.30;82.00;;;;;;5106438;28;20039;-43
2021/01/11 12:16:48;;;;;;;7.70;5.88;;;7.30;82.00;;;;;;5101420;28;20349;-43
2021/01/11 12:19:14;;;;;;;6.10;5.38;;;7.30;82.00;;;;;;5085754;28;20111;-43
2021/01/11 12:21:41;;;;;;;7.45;6.00;;;7.30;81.90;;;;;;5085661;28;20040;-43
2021/01/11 12:24:09;;;;;;;6.75;6.05;;;7.30;82.00;;;;;;5084798;28;20032;-43
2021/01/11 12:26:43;;;;;;;6.82;5.97;;;7.30;82.00;;;;;;5085816;28;20032;-43
2021/01/11 12:29:11;;;;;;;5.93;5.30;;;7.30;82.00;;;;;;5084098;28;20029;-44
2021/01/11 12:31:37;;;;;;;6.53;5.43;;;7.30;82.00;;;;;;5085538;28;20036;-43
2021/01/11 12:34:04;;;;;;;7.40;6.10;;;7.30;82.00;;;;;;5085701;28;20066;-43
2021/01/11 12:36:31;;;;;;;7.78;5.72;;;7.30;82.00;;;;;;5085733;28;20051;-43
2021/01/11 12:38:57;;;;;;;6.90;5.57;;;7.30;82.00;;;;;;5085119;28;20029;-42
2021/01/11 12:41:24;;;;;;;8.02;6.60;;;7.30;82.00;;;;;;5085928;28;20088;-43
2021/01/11 12:43:50;;;;;;;6.50;5.20;;;7.30;82.00;;;;;;5085429;28;20032;-43
2021/01/11 12:46:18;;;;;;;6.90;5.63;;;7.30;82.00;;;;;;5083759;28;20115;-43
2021/01/11 12:48:44;;;;;;;8.95;5.47;;;7.30;82.00;;;;;;5085486;28;20051;-43
2021/01/11 12:51:22;;;;;;;6.82;6.13;;;7.30;81.90;;;;;;5085103;28;20029;-43
2021/01/11 12:53:51;;;;;;;7.22;5.75;;;7.30;82.00;;;;;;5083838;28;20753;-44
2021/01/11 12:56:21;;;;;;;5.97;5.28;;;7.30;82.00;;;;;;5084924;28;20113;-43
2021/01/11 12:58:48;;;;;;;7.95;6.10;;;7.30;82.00;;;;;;5084977;28;20040;-43
2021/01/11 13:01:21;;;;;;;6.72;6.03;;;7.30;82.00;;;;;;5084910;28;20572;-43
2021/01/11 13:03:47;;;;;;;6.72;5.47;;;7.30;82.00;;;;;;5085146;28;20047;-43
2021/01/11 13:06:24;;;;;;;4.95;4.43;;;7.30;82.00;;;;;;5085173;28;20037;-43